Tatuta Maru — JD3599 — position and weather

sailwx.info

Track history (hours):
 
Tides and Currents Weather Stations Pressure Air Temp Water Temp Dewpoint Dewpoint Depression Visibility Wind Speed Wind Dir Waves Ship Positions

Tatuta Maru

Last reported at 2017-Nov-19 00:20 UTC. Time now 2017-Nov-19 06:48 UTC.
Position N 34°37' E 135°02'.

Length 43 m; draft 2.9 m.

Type: Tug. MMSI: 431005149.

Date/timePositionNaut miles runAvg speedWind from/ knotsBaromVisibWave heightAir tempDewpointWater temp
2017-Nov-19 00:20N 34°37' E 135°02'513.4
2017-Nov-18 23:59N 34°35' E 135°07'3 5.3
2017-Nov-18 23:29N 34°33' E 135°09'4 8.5
2017-Nov-18 23:01N 34°29' E 135°07'611.6
2017-Nov-18 22:27N 34°23' E 135°04'711.7
2017-Nov-18 21:51N 34°17' E 134°59'412.5
2017-Nov-18 21:30N 34°13' E 134°59'1 2.2
2017-Nov-18 20:58N 34°13' E 135°01'710.8
2017-Nov-18 20:20N 34°19' E 135°04'713.1
2017-Nov-18 19:51N 34°24' E 135°09'513.8
2017-Nov-18 19:31N 34°27' E 135°13'713.5
2017-Nov-18 19:01N 34°31' E 135°20'611.4
2017-Nov-18 18:29N 34°33' E 135°26'0 0.1
2017-Nov-18 15:44N 34°33' E 135°27'0 0.0
2017-Nov-18 15:25N 34°33' E 135°27'0 0.0
2017-Nov-17 22:30N 34°33' E 135°27'0 0.0
2017-Nov-17 21:54N 34°33' E 135°27'0 0.0
2017-Nov-17 20:26N 34°33' E 135°27'0 0.0
2017-Nov-17 19:07N 34°33' E 135°27'0 0.0
2017-Nov-17 16:26N 34°33' E 135°27'0 0.0
2017-Nov-17 15:51N 34°33' E 135°27'0 0.0
2017-Nov-17 15:31N 34°33' E 135°27'0 0.0
2017-Nov-17 15:01N 34°33' E 135°27'0 0.0
2017-Nov-17 14:31N 34°33' E 135°27'0 0.0
2017-Nov-17 14:01N 34°33' E 135°27'0 0.0
2017-Nov-17 13:27N 34°33' E 135°27'0 0.0
2017-Nov-17 12:58N 34°33' E 135°27'0 0.0
2017-Nov-17 12:30N 34°33' E 135°27'0 0.0
2017-Nov-17 12:00N 34°33' E 135°27'0 0.0
2017-Nov-17 11:28N 34°33' E 135°27'0 0.0
2017-Nov-17 06:37N 34°33' E 135°27'2 8.0
2017-Nov-17 06:23N 34°33' E 135°24'411.3
2017-Nov-17 06:01N 34°31' E 135°20'713.6
2017-Nov-17 05:31N 34°27' E 135°13'8 3.2
2017-Nov-17 03:07N 34°30' E 135°05'311.3
2017-Nov-17 02:54N 34°33' E 135°06'3 7.4
2017-Nov-17 02:30N 34°35' E 135°04'3 0.1
2017-Nov-16 03:05N 34°37' E 135°01'211.2
2017-Nov-16 02:54N 34°36' E 135°03'4 9.9
2017-Nov-16 02:30N 34°35' E 135°08'2 3.6
2017-Nov-16 02:00N 34°33' E 135°08'4 7.7
2017-Nov-16 01:30N 34°30' E 135°08'610.7
2017-Nov-16 00:59N 34°24' E 135°05'812.5
2017-Nov-16 00:22N 34°18' E 134°60'612.8
2017-Nov-15 23:54N 34°12' E 134°60'3 5.8
2017-Nov-15 23:22N 34°12' E 135°04'411.3
2017-Nov-15 23:01N 34°13' E 135°08'1 1.2
2017-Nov-15 22:31N 34°13' E 135°09'0 0.0
2017-Nov-15 22:01N 34°13' E 135°09'0 0.0
2017-Nov-15 21:31N 34°13' E 135°09'0 0.0
2017-Nov-15 21:01N 34°13' E 135°09'0 0.0
2017-Nov-15 20:31N 34°13' E 135°09'0 0.0
2017-Nov-15 20:01N 34°13' E 135°09'0 0.0
2017-Nov-15 19:31N 34°13' E 135°09'0 0.0
2017-Nov-15 19:00N 34°13' E 135°09'0 0.0
2017-Nov-15 18:30N 34°13' E 135°09'0 0.0
2017-Nov-15 18:01N 34°13' E 135°09'0 0.0
2017-Nov-15 17:31N 34°13' E 135°09'0 0.0
2017-Nov-15 17:01N 34°13' E 135°09'0 0.0
2017-Nov-15 16:31N 34°13' E 135°09'0 0.0
2017-Nov-15 16:01N 34°13' E 135°09'0 0.0
2017-Nov-15 15:30N 34°13' E 135°09'0 0.0
2017-Nov-15 15:01N 34°13' E 135°09'0 0.0
2017-Nov-15 14:30N 34°13' E 135°09'0 0.0
2017-Nov-15 14:00N 34°13' E 135°09'0 0.0
2017-Nov-15 13:30N 34°13' E 135°09'0 0.0
2017-Nov-15 13:00N 34°13' E 135°09'0 0.0
2017-Nov-15 12:31N 34°13' E 135°09'0 0.0
2017-Nov-15 12:01N 34°13' E 135°09'0 0.0
2017-Nov-15 11:31N 34°13' E 135°09'0 0.0
2017-Nov-15 11:00N 34°13' E 135°09'0 0.0
2017-Nov-15 10:31N 34°13' E 135°09'0 0.0
2017-Nov-15 10:00N 34°13' E 135°09'0 0.0
2017-Nov-15 09:31N 34°13' E 135°09'3 6.4
2017-Nov-15 09:01N 34°14' E 135°05'1910.6
2017-Nov-15 07:13N 34°33' E 135°06'2 9.4
2017-Nov-15 07:00N 34°34' E 135°05'  
2017-Nov-13 01:49N 34°33' E 135°27'0 0.0
2017-Nov-12 23:31N 34°33' E 135°27'0 0.0
2017-Nov-12 23:25N 34°33' E 135°27'0 0.0
2017-Nov-12 20:56N 34°33' E 135°27'0 0.0
2017-Nov-12 19:32N 34°33' E 135°27'0 0.0
2017-Nov-12 19:29N 34°33' E 135°27'0 0.0
2017-Nov-12 19:00N 34°33' E 135°27'0 0.0
2017-Nov-12 14:28N 34°33' E 135°27'0 0.0
2017-Nov-12 13:51N 34°33' E 135°27'0 0.0
2017-Nov-12 13:30N 34°33' E 135°27'0 0.0
2017-Nov-12 12:50N 34°33' E 135°27'0 0.0
2017-Nov-11 22:00N 34°33' E 135°27'0 0.0
2017-Nov-11 16:00N 34°33' E 135°27'0 0.0
2017-Nov-11 15:30N 34°33' E 135°27'0 0.0
2017-Nov-11 13:49N 34°33' E 135°27'3 8.0
2017-Nov-11 13:30N 34°33' E 135°24'612.8
2017-Nov-11 13:00N 34°30' E 135°17'713.2
2017-Nov-11 12:30N 34°26' E 135°11'7 2.8
2017-Nov-11 10:08N 34°31' E 135°07'211.0
2017-Nov-11 09:59N 34°33' E 135°08'2 4.7
2017-Nov-11 09:30N 34°35' E 135°06'5 9.8
2017-Nov-11 09:01N 34°37' E 135°01'0 0.0
2017-Nov-10 02:50N 34°37' E 135°01'412.3
2017-Nov-10 02:30N 34°35' E 135°05'3 6.2
2017-Nov-10 02:00N 34°33' E 135°08'4 8.7
2017-Nov-10 01:30N 34°30' E 135°06'1612.9
2017-Nov-10 00:15N 34°15' E 134°59'3 9.2
2017-Nov-09 23:58N 34°12' E 134°59'2 4.6
2017-Nov-09 23:29N 34°11' E 135°02'510.1
2017-Nov-09 23:00N 34°13' E 135°08'1 2.6
2017-Nov-09 22:30N 34°13' E 135°09'0 0.0
2017-Nov-09 22:00N 34°13' E 135°09'0 0.0
2017-Nov-09 21:30N 34°13' E 135°09'0 0.0
2017-Nov-09 21:00N 34°13' E 135°09'0 0.0
2017-Nov-09 20:30N 34°13' E 135°09'0 0.0
2017-Nov-09 20:00N 34°13' E 135°09'0 0.0
2017-Nov-09 19:30N 34°13' E 135°09'0 0.0
2017-Nov-09 19:00N 34°13' E 135°09'0 0.0
2017-Nov-09 18:30N 34°13' E 135°09'0 0.0
2017-Nov-09 18:00N 34°13' E 135°09'0 0.0
2017-Nov-09 17:30N 34°13' E 135°09'0 0.0
2017-Nov-09 17:00N 34°13' E 135°09'0 0.0
2017-Nov-09 16:30N 34°13' E 135°09'0 0.0
2017-Nov-09 16:00N 34°13' E 135°09'0 0.0
2017-Nov-09 15:30N 34°13' E 135°09'0 0.0
2017-Nov-09 15:00N 34°13' E 135°09'0 0.0
2017-Nov-09 14:30N 34°13' E 135°09'0 0.0
2017-Nov-09 14:00N 34°13' E 135°09'0 0.0
2017-Nov-09 13:30N 34°13' E 135°09'0 0.0
2017-Nov-09 13:00N 34°13' E 135°09'0 0.0
2017-Nov-09 12:30N 34°13' E 135°09'0 0.0
2017-Nov-09 12:00N 34°13' E 135°09'2 4.3
2017-Nov-09 11:30N 34°13' E 135°06'1710.5
2017-Nov-09 09:56N 34°30' E 135°06'4 9.1
2017-Nov-09 09:30N 34°34' E 135°06'712.2
2017-Nov-09 08:55N 34°37' E 134°58'  
Track history (hours):
 
Tides and Currents Weather Stations Pressure Air Temp Water Temp Dewpoint Dewpoint Depression Visibility Wind Speed Wind Dir Waves Ship Positions

Tatuta Maru

Last reported at 2017-Nov-19 00:20 UTC. Time now 2017-Nov-19 06:48 UTC.
Position N 34°37' E 135°02'.

Length 43 m; draft 2.9 m.

Type: Tug. MMSI: 431005149.

Date/timePositionNaut miles runAvg speedWind from/ knotsBaromVisibWave heightAir tempDewpointWater temp
2017-Nov-19 00:20N 34°37' E 135°02'513.4
2017-Nov-18 23:59N 34°35' E 135°07'3 5.3
2017-Nov-18 23:29N 34°33' E 135°09'4 8.5
2017-Nov-18 23:01N 34°29' E 135°07'611.6
2017-Nov-18 22:27N 34°23' E 135°04'711.7
2017-Nov-18 21:51N 34°17' E 134°59'412.5
2017-Nov-18 21:30N 34°13' E 134°59'1 2.2
2017-Nov-18 20:58N 34°13' E 135°01'710.8
2017-Nov-18 20:20N 34°19' E 135°04'713.1
2017-Nov-18 19:51N 34°24' E 135°09'513.8
2017-Nov-18 19:31N 34°27' E 135°13'713.5
2017-Nov-18 19:01N 34°31' E 135°20'611.4
2017-Nov-18 18:29N 34°33' E 135°26'0 0.1
2017-Nov-18 15:44N 34°33' E 135°27'0 0.0
2017-Nov-18 15:25N 34°33' E 135°27'0 0.0
2017-Nov-17 22:30N 34°33' E 135°27'0 0.0
2017-Nov-17 21:54N 34°33' E 135°27'0 0.0
2017-Nov-17 20:26N 34°33' E 135°27'0 0.0
2017-Nov-17 19:07N 34°33' E 135°27'0 0.0
2017-Nov-17 16:26N 34°33' E 135°27'0 0.0
2017-Nov-17 15:51N 34°33' E 135°27'0 0.0
2017-Nov-17 15:31N 34°33' E 135°27'0 0.0
2017-Nov-17 15:01N 34°33' E 135°27'0 0.0
2017-Nov-17 14:31N 34°33' E 135°27'0 0.0
2017-Nov-17 14:01N 34°33' E 135°27'0 0.0
2017-Nov-17 13:27N 34°33' E 135°27'0 0.0
2017-Nov-17 12:58N 34°33' E 135°27'0 0.0
2017-Nov-17 12:30N 34°33' E 135°27'0 0.0
2017-Nov-17 12:00N 34°33' E 135°27'0 0.0
2017-Nov-17 11:28N 34°33' E 135°27'0 0.0
2017-Nov-17 06:37N 34°33' E 135°27'2 8.0
2017-Nov-17 06:23N 34°33' E 135°24'411.3
2017-Nov-17 06:01N 34°31' E 135°20'713.6
2017-Nov-17 05:31N 34°27' E 135°13'8 3.2
2017-Nov-17 03:07N 34°30' E 135°05'311.3
2017-Nov-17 02:54N 34°33' E 135°06'3 7.4
2017-Nov-17 02:30N 34°35' E 135°04'3 0.1
2017-Nov-16 03:05N 34°37' E 135°01'211.2
2017-Nov-16 02:54N 34°36' E 135°03'4 9.9
2017-Nov-16 02:30N 34°35' E 135°08'2 3.6
2017-Nov-16 02:00N 34°33' E 135°08'4 7.7
2017-Nov-16 01:30N 34°30' E 135°08'610.7
2017-Nov-16 00:59N 34°24' E 135°05'812.5
2017-Nov-16 00:22N 34°18' E 134°60'612.8
2017-Nov-15 23:54N 34°12' E 134°60'3 5.8
2017-Nov-15 23:22N 34°12' E 135°04'411.3
2017-Nov-15 23:01N 34°13' E 135°08'1 1.2
2017-Nov-15 22:31N 34°13' E 135°09'0 0.0
2017-Nov-15 22:01N 34°13' E 135°09'0 0.0
2017-Nov-15 21:31N 34°13' E 135°09'0 0.0
2017-Nov-15 21:01N 34°13' E 135°09'0 0.0
2017-Nov-15 20:31N 34°13' E 135°09'0 0.0
2017-Nov-15 20:01N 34°13' E 135°09'0 0.0
2017-Nov-15 19:31N 34°13' E 135°09'0 0.0
2017-Nov-15 19:00N 34°13' E 135°09'0 0.0
2017-Nov-15 18:30N 34°13' E 135°09'0 0.0
2017-Nov-15 18:01N 34°13' E 135°09'0 0.0
2017-Nov-15 17:31N 34°13' E 135°09'0 0.0
2017-Nov-15 17:01N 34°13' E 135°09'0 0.0
2017-Nov-15 16:31N 34°13' E 135°09'0 0.0
2017-Nov-15 16:01N 34°13' E 135°09'0 0.0
2017-Nov-15 15:30N 34°13' E 135°09'0 0.0
2017-Nov-15 15:01N 34°13' E 135°09'0 0.0
2017-Nov-15 14:30N 34°13' E 135°09'0 0.0
2017-Nov-15 14:00N 34°13' E 135°09'0 0.0
2017-Nov-15 13:30N 34°13' E 135°09'0 0.0
2017-Nov-15 13:00N 34°13' E 135°09'0 0.0
2017-Nov-15 12:31N 34°13' E 135°09'0 0.0
2017-Nov-15 12:01N 34°13' E 135°09'0 0.0
2017-Nov-15 11:31N 34°13' E 135°09'0 0.0
2017-Nov-15 11:00N 34°13' E 135°09'0 0.0
2017-Nov-15 10:31N 34°13' E 135°09'0 0.0
2017-Nov-15 10:00N 34°13' E 135°09'0 0.0
2017-Nov-15 09:31N 34°13' E 135°09'3 6.4
2017-Nov-15 09:01N 34°14' E 135°05'1910.6
2017-Nov-15 07:13N 34°33' E 135°06'2 9.4
2017-Nov-15 07:00N 34°34' E 135°05'  
2017-Nov-13 01:49N 34°33' E 135°27'0 0.0
2017-Nov-12 23:31N 34°33' E 135°27'0 0.0
2017-Nov-12 23:25N 34°33' E 135°27'0 0.0
2017-Nov-12 20:56N 34°33' E 135°27'0 0.0
2017-Nov-12 19:32N 34°33' E 135°27'0 0.0
2017-Nov-12 19:29N 34°33' E 135°27'0 0.0
2017-Nov-12 19:00N 34°33' E 135°27'0 0.0
2017-Nov-12 14:28N 34°33' E 135°27'0 0.0
2017-Nov-12 13:51N 34°33' E 135°27'0 0.0
2017-Nov-12 13:30N 34°33' E 135°27'0 0.0
2017-Nov-12 12:50N 34°33' E 135°27'0 0.0
2017-Nov-11 22:00N 34°33' E 135°27'0 0.0
2017-Nov-11 16:00N 34°33' E 135°27'0 0.0
2017-Nov-11 15:30N 34°33' E 135°27'0 0.0
2017-Nov-11 13:49N 34°33' E 135°27'3 8.0
2017-Nov-11 13:30N 34°33' E 135°24'612.8
2017-Nov-11 13:00N 34°30' E 135°17'713.2
2017-Nov-11 12:30N 34°26' E 135°11'7 2.8
2017-Nov-11 10:08N 34°31' E 135°07'211.0
2017-Nov-11 09:59N 34°33' E 135°08'2 4.7
2017-Nov-11 09:30N 34°35' E 135°06'5 9.8
2017-Nov-11 09:01N 34°37' E 135°01'0 0.0
2017-Nov-10 02:50N 34°37' E 135°01'412.3
2017-Nov-10 02:30N 34°35' E 135°05'3 6.2
2017-Nov-10 02:00N 34°33' E 135°08'4 8.7
2017-Nov-10 01:30N 34°30' E 135°06'1612.9
2017-Nov-10 00:15N 34°15' E 134°59'3 9.2
2017-Nov-09 23:58N 34°12' E 134°59'2 4.6
2017-Nov-09 23:29N 34°11' E 135°02'510.1
2017-Nov-09 23:00N 34°13' E 135°08'1 2.6
2017-Nov-09 22:30N 34°13' E 135°09'0 0.0
2017-Nov-09 22:00N 34°13' E 135°09'0 0.0
2017-Nov-09 21:30N 34°13' E 135°09'0 0.0
2017-Nov-09 21:00N 34°13' E 135°09'0 0.0
2017-Nov-09 20:30N 34°13' E 135°09'0 0.0
2017-Nov-09 20:00N 34°13' E 135°09'0 0.0
2017-Nov-09 19:30N 34°13' E 135°09'0 0.0
2017-Nov-09 19:00N 34°13' E 135°09'0 0.0
2017-Nov-09 18:30N 34°13' E 135°09'0 0.0
2017-Nov-09 18:00N 34°13' E 135°09'0 0.0
2017-Nov-09 17:30N 34°13' E 135°09'0 0.0
2017-Nov-09 17:00N 34°13' E 135°09'0 0.0
2017-Nov-09 16:30N 34°13' E 135°09'0 0.0
2017-Nov-09 16:00N 34°13' E 135°09'0 0.0
2017-Nov-09 15:30N 34°13' E 135°09'0 0.0
2017-Nov-09 15:00N 34°13' E 135°09'0 0.0
2017-Nov-09 14:30N 34°13' E 135°09'0 0.0
2017-Nov-09 14:00N 34°13' E 135°09'0 0.0
2017-Nov-09 13:30N 34°13' E 135°09'0 0.0
2017-Nov-09 13:00N 34°13' E 135°09'0 0.0
2017-Nov-09 12:30N 34°13' E 135°09'0 0.0
2017-Nov-09 12:00N 34°13' E 135°09'2 4.3
2017-Nov-09 11:30N 34°13' E 135°06'1710.5
2017-Nov-09 09:56N 34°30' E 135°06'4 9.1
2017-Nov-09 09:30N 34°34' E 135°06'712.2
2017-Nov-09 08:55N 34°37' E 134°58'  

Dump ship's entire track history